Time;durP1;ratioP1;P1;durP2;ratioP2;P2;SDS_P1;SDS_P2;PMS_P1;PMS_P2;Temp;Humidity;BMP_temperature;BMP_pressure;BME280_temperature;BME280_humidity;BME280_pressure;Samples;Min_cycle;Max_cycle;Signal;HPM_P1;HPM_P2
2022/03/29 00:02:16;;;;;;;31.40;17.85;;;7.90;99.90;;;;;;5052610;28;20045;-77
2022/03/29 00:04:42;;;;;;;30.35;17.42;;;7.90;99.90;;;;;;5044449;28;20052;-77
2022/03/29 00:07:08;;;;;;;32.85;17.08;;;7.90;99.90;;;;;;5046891;28;20045;-77
2022/03/29 00:09:33;;;;;;;32.40;18.70;;;8.00;99.90;;;;;;5053221;28;20044;-77
2022/03/29 00:11:59;;;;;;;33.20;18.52;;;7.90;99.90;;;;;;5051103;28;20048;-77
2022/03/29 00:14:25;;;;;;;34.55;19.05;;;7.90;99.90;;;;;;5043761;28;20041;-77
2022/03/29 00:16:50;;;;;;;29.38;17.85;;;7.80;99.90;;;;;;5052594;28;20049;-77
2022/03/29 00:19:16;;;;;;;31.40;17.50;;;7.90;99.90;;;;;;5056020;28;20049;-77
2022/03/29 00:21:41;;;;;;;33.90;18.52;;;7.90;99.90;;;;;;5039847;28;20060;-77
2022/03/29 00:24:07;;;;;;;31.75;17.40;;;7.90;99.90;;;;;;5051705;28;20075;-78
2022/03/29 00:26:33;;;;;;;31.42;18.58;;;7.90;99.90;;;;;;5059678;28;20055;-77
2022/03/29 00:28:58;;;;;;;28.85;17.10;;;7.90;99.90;;;;;;5062878;28;20089;-77
2022/03/29 00:31:24;;;;;;;33.97;19.48;;;7.90;99.90;;;;;;5050995;28;20060;-78
2022/03/29 00:33:50;;;;;;;29.70;16.58;;;7.80;99.90;;;;;;5049325;28;20060;-77
2022/03/29 00:36:16;;;;;;;30.00;17.80;;;7.80;99.90;;;;;;5051865;28;20041;-77
2022/03/29 00:38:43;;;;;;;31.45;17.38;;;7.70;99.90;;;;;;5050481;28;20125;-77
2022/03/29 00:41:09;;;;;;;30.60;17.27;;;7.70;99.90;;;;;;5042564;28;20049;-77
2022/03/29 00:43:35;;;;;;;28.95;16.70;;;7.70;99.90;;;;;;5052257;28;20402;-78
2022/03/29 00:46:01;;;;;;;29.13;17.08;;;7.70;99.90;;;;;;5046537;28;20052;-77
2022/03/29 00:48:27;;;;;;;27.50;17.10;;;7.70;99.90;;;;;;5052173;28;20057;-78
2022/03/29 00:50:55;;;;;;;27.98;16.52;;;7.70;99.90;;;;;;5050593;28;20060;-77
2022/03/29 00:53:22;;;;;;;28.38;16.15;;;7.60;99.90;;;;;;5048763;28;20056;-77
2022/03/29 00:55:49;;;;;;;25.73;16.33;;;7.60;99.90;;;;;;5049738;28;20056;-77
2022/03/29 00:58:15;;;;;;;26.27;15.40;;;7.70;99.90;;;;;;5048189;28;20204;-76
2022/03/29 01:00:41;;;;;;;27.00;15.43;;;7.60;99.90;;;;;;5050022;28;20045;-77
2022/03/29 01:03:07;;;;;;;27.38;15.40;;;7.60;99.90;;;;;;5048194;28;20044;-77
2022/03/29 01:05:33;;;;;;;27.30;16.10;;;7.60;99.90;;;;;;5049777;28;20045;-77
2022/03/29 01:08:00;;;;;;;24.45;15.43;;;7.50;99.90;;;;;;5048070;28;20103;-77
2022/03/29 01:10:26;;;;;;;25.08;15.25;;;7.50;99.90;;;;;;5049549;28;20440;-77
2022/03/29 01:12:54;;;;;;;27.05;15.70;;;7.40;99.90;;;;;;5044985;28;20345;-77
2022/03/29 01:15:22;;;;;;;24.77;15.52;;;7.40;99.90;;;;;;5052088;28;20116;-77
2022/03/29 01:17:48;;;;;;;26.15;15.20;;;7.30;99.90;;;;;;5049019;28;20049;-77
2022/03/29 01:20:19;;;;;;;25.52;15.50;;;7.30;99.90;;;;;;5046921;28;20428;-76
2022/03/29 01:22:47;;;;;;;24.30;15.48;;;7.30;99.90;;;;;;5030674;28;20467;-78
2022/03/29 01:25:25;;;;;;;23.35;14.88;;;7.30;99.90;;;;;;5034301;28;20128;-77
2022/03/29 01:27:53;;;;;;;24.80;15.52;;;7.30;99.90;;;;;;5038010;28;20048;-77
2022/03/29 01:30:21;;;;;;;24.25;14.48;;;7.30;99.90;;;;;;5049165;28;20045;-77
2022/03/29 01:32:49;;;;;;;26.02;15.70;;;7.30;99.90;;;;;;5035175;28;20042;-76
2022/03/29 01:35:17;;;;;;;24.40;15.05;;;7.30;99.90;;;;;;5043309;28;20431;-76
2022/03/29 01:37:43;;;;;;;24.08;14.60;;;7.30;99.90;;;;;;5048123;28;20041;-77
2022/03/29 01:40:10;;;;;;;23.90;14.52;;;7.30;99.90;;;;;;5049879;28;20102;-76
2022/03/29 01:42:36;;;;;;;24.35;15.32;;;7.30;99.90;;;;;;5020220;28;20046;-76
2022/03/29 01:45:02;;;;;;;25.42;14.98;;;7.40;99.90;;;;;;5030170;28;20098;-77
2022/03/29 01:47:28;;;;;;;22.92;14.57;;;7.40;99.90;;;;;;5044232;28;20044;-77
2022/03/29 01:49:53;;;;;;;25.92;15.45;;;7.40;99.90;;;;;;5050929;28;20055;-77
2022/03/29 01:52:20;;;;;;;24.08;15.77;;;7.40;99.90;;;;;;5037807;28;20466;-77
2022/03/29 01:54:46;;;;;;;23.00;15.18;;;7.50;99.90;;;;;;5058767;28;20162;-77
2022/03/29 01:57:12;;;;;;;20.90;13.45;;;7.50;99.90;;;;;;5048917;28;20132;-77
2022/03/29 02:02:23;;;;;;;21.17;13.82;;;7.50;99.90;;;;;;5049295;28;20052;-77
2022/03/29 02:04:48;;;;;;;22.55;14.55;;;7.50;99.90;;;;;;5049882;28;20123;-77
2022/03/29 02:07:16;;;;;;;22.17;14.32;;;7.50;99.90;;;;;;5049051;28;20049;-77
2022/03/29 02:09:42;;;;;;;20.30;13.88;;;7.50;99.90;;;;;;5046779;28;20166;-77
2022/03/29 02:12:12;;;;;;;22.35;14.32;;;7.50;99.90;;;;;;5038585;28;20041;-77
2022/03/29 02:14:38;;;;;;;21.85;14.60;;;7.50;99.90;;;;;;5048897;28;20485;-77
2022/03/29 02:17:05;;;;;;;20.65;13.75;;;7.50;99.90;;;;;;5050716;28;20040;-77
2022/03/29 02:19:30;;;;;;;19.13;13.18;;;7.50;99.90;;;;;;5043636;28;20037;-77
2022/03/29 02:21:56;;;;;;;22.45;14.23;;;7.50;99.90;;;;;;5047487;28;20120;-77
2022/03/29 02:24:21;;;;;;;22.10;14.02;;;7.40;99.90;;;;;;5050289;28;20420;-77
2022/03/29 02:26:47;;;;;;;22.27;13.77;;;7.50;99.90;;;;;;5050244;28;20155;-77
2022/03/29 02:29:12;;;;;;;20.88;13.88;;;7.40;99.90;;;;;;5049836;28;20068;-77
2022/03/29 02:31:38;;;;;;;20.85;13.30;;;7.50;99.90;;;;;;5038847;28;20049;-77
2022/03/29 02:34:04;;;;;;;20.33;13.70;;;7.50;99.90;;;;;;5045074;28;20094;-76
2022/03/29 02:36:30;;;;;;;23.73;15.00;;;7.50;99.90;;;;;;5041593;28;20051;-76
2022/03/29 02:38:56;;;;;;;23.95;15.45;;;7.50;99.90;;;;;;5042289;28;20133;-76
2022/03/29 02:41:21;;;;;;;24.98;15.00;;;7.40;99.90;;;;;;5048884;28;20129;-77
2022/03/29 02:43:47;;;;;;;22.52;15.23;;;7.40;99.90;;;;;;5039106;28;20080;-77
2022/03/29 02:46:13;;;;;;;22.80;14.60;;;7.40;99.90;;;;;;5046692;28;20048;-77
2022/03/29 02:48:39;;;;;;;25.30;14.95;;;7.30;99.90;;;;;;5049209;28;20045;-76
2022/03/29 02:51:05;;;;;;;23.02;15.57;;;7.20;99.90;;;;;;5047614;28;20110;-77
2022/03/29 02:53:30;;;;;;;23.70;15.23;;;7.10;99.90;;;;;;5036304;28;20042;-77
2022/03/29 02:55:56;;;;;;;24.27;15.48;;;7.10;99.90;;;;;;5048346;28;20060;-76
2022/03/29 02:58:22;;;;;;;25.15;15.95;;;7.10;99.90;;;;;;5048304;28;20057;-77
2022/03/29 03:00:48;;;;;;;23.45;15.10;;;7.00;99.90;;;;;;5047893;28;20063;-77
2022/03/29 03:03:14;;;;;;;23.40;15.50;;;7.00;99.90;;;;;;5048639;28;20111;-77
2022/03/29 03:05:39;;;;;;;22.15;15.07;;;7.10;99.90;;;;;;5044604;28;20073;-77
2022/03/29 03:08:05;;;;;;;23.67;15.20;;;7.00;99.90;;;;;;5054966;28;20037;-76
2022/03/29 03:10:31;;;;;;;22.40;15.38;;;7.00;99.90;;;;;;5054474;28;20083;-77
2022/03/29 03:12:57;;;;;;;22.08;14.60;;;7.00;99.90;;;;;;5054731;28;20041;-77
2022/03/29 03:15:24;;;;;;;25.42;16.50;;;7.00;99.90;;;;;;5044460;28;20094;-77
2022/03/29 03:17:52;;;;;;;24.40;15.57;;;6.90;99.90;;;;;;5055616;28;20055;-77
2022/03/29 03:20:17;;;;;;;24.98;16.52;;;7.00;99.90;;;;;;5041800;28;20049;-77
2022/03/29 03:22:44;;;;;;;24.55;16.65;;;7.00;99.90;;;;;;5051253;28;20061;-77
2022/03/29 03:25:11;;;;;;;23.95;16.00;;;6.90;99.90;;;;;;5036069;28;20507;-77
2022/03/29 03:27:36;;;;;;;26.35;17.38;;;7.00;99.90;;;;;;5044090;28;20060;-77
2022/03/29 03:30:04;;;;;;;26.55;17.48;;;7.00;99.90;;;;;;5056498;28;20446;-77
2022/03/29 03:32:30;;;;;;;25.20;18.10;;;7.00;99.90;;;;;;5054625;28;20048;-77
2022/03/29 03:34:57;;;;;;;26.20;17.23;;;6.90;99.90;;;;;;5073880;28;20179;-77
2022/03/29 03:37:23;;;;;;;28.73;18.55;;;6.90;99.90;;;;;;5061360;28;20036;-77
2022/03/29 03:39:49;;;;;;;27.08;18.60;;;6.90;99.90;;;;;;5054146;28;20049;-75
2022/03/29 03:42:15;;;;;;;26.58;17.75;;;6.90;99.90;;;;;;5055595;28;20547;-76
2022/03/29 03:44:40;;;;;;;29.05;19.52;;;6.90;99.90;;;;;;5055747;28;20462;-77
2022/03/29 03:47:08;;;;;;;30.67;19.38;;;6.90;99.90;;;;;;5054476;28;20375;-77
2022/03/29 03:49:38;;;;;;;28.38;19.15;;;6.80;99.90;;;;;;5054234;28;20076;-77
2022/03/29 03:52:06;;;;;;;28.42;18.75;;;6.80;99.90;;;;;;5056181;28;20041;-77
2022/03/29 03:54:35;;;;;;;30.80;19.45;;;6.80;99.90;;;;;;5054319;28;20084;-77
2022/03/29 03:57:01;;;;;;;30.30;19.38;;;6.70;99.90;;;;;;5037565;28;20085;-77
2022/03/29 03:59:27;;;;;;;29.48;19.17;;;6.70;99.90;;;;;;5063694;28;20060;-76
2022/03/29 04:01:52;;;;;;;29.15;18.48;;;6.70;99.90;;;;;;5037510;28;20045;-77
2022/03/29 04:04:18;;;;;;;27.70;18.48;;;6.70;99.90;;;;;;5052598;28;20067;-77
2022/03/29 04:06:44;;;;;;;26.38;16.90;;;6.60;99.90;;;;;;5041143;28;20710;-77
2022/03/29 04:09:10;;;;;;;27.23;16.88;;;6.50;99.90;;;;;;5056006;28;20045;-77
2022/03/29 04:11:36;;;;;;;25.83;15.60;;;6.60;99.90;;;;;;5041610;28;20045;-79
2022/03/29 04:14:01;;;;;;;29.05;17.88;;;6.70;99.90;;;;;;5039105;28;20157;-78
2022/03/29 04:16:27;;;;;;;28.30;17.02;;;6.70;99.90;;;;;;5050613;28;20036;-79
2022/03/29 04:18:53;;;;;;;28.10;17.10;;;6.70;99.90;;;;;;5052546;28;20053;-78
2022/03/29 04:21:18;;;;;;;25.67;17.25;;;6.70;99.90;;;;;;5051109;28;20048;-78
2022/03/29 04:23:44;;;;;;;25.67;16.90;;;6.70;99.90;;;;;;5052879;28;20128;-78
2022/03/29 04:26:10;;;;;;;27.00;17.02;;;6.70;99.90;;;;;;5051843;28;20033;-78
2022/03/29 04:28:36;;;;;;;26.10;16.20;;;6.70;99.90;;;;;;5048203;28;20120;-78
2022/03/29 04:31:02;;;;;;;29.50;17.08;;;6.80;99.90;;;;;;5049659;28;20127;-78
2022/03/29 04:33:28;;;;;;;27.75;17.75;;;6.80;99.90;;;;;;5049705;28;20048;-78
2022/03/29 04:35:56;;;;;;;28.10;16.35;;;6.80;99.90;;;;;;5047911;28;20435;-78
2022/03/29 04:38:25;;;;;;;27.30;17.13;;;6.90;99.90;;;;;;5041053;28;20448;-78
2022/03/29 04:40:52;;;;;;;28.73;16.85;;;6.80;99.90;;;;;;5034435;28;22138;-78
2022/03/29 04:43:17;;;;;;;26.10;17.13;;;6.80;99.90;;;;;;5067348;28;20242;-78
2022/03/29 04:45:43;;;;;;;27.23;17.23;;;6.80;99.90;;;;;;5050490;28;20060;-79
2022/03/29 04:48:09;;;;;;;25.80;16.63;;;6.80;99.90;;;;;;5049136;28;20036;-77
2022/03/29 04:50:35;;;;;;;27.73;17.50;;;6.80;99.90;;;;;;5033546;28;20132;-77
2022/03/29 04:53:01;;;;;;;30.42;17.20;;;6.80;99.90;;;;;;5052158;28;20521;-78
2022/03/29 04:55:26;;;;;;;29.80;18.33;;;6.80;99.90;;;;;;5061342;28;20041;-76
2022/03/29 04:57:52;;;;;;;28.95;17.98;;;6.80;99.90;;;;;;5047263;28;20044;-76
2022/03/29 05:00:22;;;;;;;28.45;17.58;;;6.80;99.90;;;;;;5050784;28;20052;-75
2022/03/29 05:02:48;;;;;;;27.73;16.88;;;6.80;99.90;;;;;;5039500;28;20049;-77
2022/03/29 05:05:15;;;;;;;27.48;16.15;;;6.80;99.90;;;;;;5052071;28;20069;-80
2022/03/29 05:07:41;;;;;;;30.75;18.70;;;6.80;99.90;;;;;;5052182;28;20080;-75
2022/03/29 05:10:09;;;;;;;30.70;18.05;;;6.80;99.90;;;;;;5048923;28;20049;-83
2022/03/29 05:12:42;;;;;;;28.95;17.98;;;6.80;99.90;;;;;;5045091;28;20053;-81
2022/03/29 05:15:08;;;;;;;32.65;18.75;;;6.80;99.90;;;;;;5042099;28;20052;-82
2022/03/29 05:17:35;;;;;;;31.42;17.50;;;6.80;99.90;;;;;;5049191;28;20049;-87
2022/03/29 05:20:02;;;;;;;31.83;18.70;;;6.80;99.90;;;;;;5050219;28;20040;-84
2022/03/29 05:22:28;;;;;;;28.30;17.23;;;6.80;99.90;;;;;;5049980;28;20209;-86
2022/03/29 05:24:53;;;;;;;29.13;18.48;;;6.80;99.90;;;;;;5047459;28;20522;-83
2022/03/29 05:27:19;;;;;;;29.27;17.45;;;6.80;99.90;;;;;;5054874;28;20048;-88
2022/03/29 05:29:45;;;;;;;30.60;17.85;;;6.80;99.90;;;;;;5056398;28;20044;-83
2022/03/29 05:32:10;;;;;;;31.35;18.17;;;6.80;99.90;;;;;;5048275;28;20075;-81
2022/03/29 05:34:36;;;;;;;29.55;18.42;;;6.80;99.90;;;;;;5051655;28;20061;-82
2022/03/29 05:37:02;;;;;;;29.48;18.35;;;6.90;99.90;;;;;;5065484;28;20064;-79
2022/03/29 05:39:27;;;;;;;28.92;18.95;;;6.80;99.90;;;;;;5051608;28;20050;-77
2022/03/29 05:41:53;;;;;;;29.80;18.20;;;6.80;99.90;;;;;;5032702;28;20479;-73
2022/03/29 05:44:19;;;;;;;30.95;18.15;;;6.90;99.90;;;;;;5048782;28;20128;-73
2022/03/29 05:49:30;;;;;;;28.25;18.08;;;6.90;99.90;;;;;;5054594;28;20073;-80
2022/03/29 05:51:56;;;;;;;28.83;17.33;;;6.90;99.90;;;;;;5024973;28;20167;-80
2022/03/29 05:54:22;;;;;;;30.27;18.45;;;7.00;99.90;;;;;;5041380;28;20091;-74
2022/03/29 05:56:49;;;;;;;28.10;17.88;;;7.00;99.90;;;;;;5039668;28;20351;-76
2022/03/29 05:59:15;;;;;;;30.55;18.52;;;7.00;99.90;;;;;;5040459;28;20138;-76
2022/03/29 06:01:40;;;;;;;28.13;18.45;;;7.00;99.90;;;;;;5039405;28;20123;-78
2022/03/29 06:04:06;;;;;;;29.05;17.60;;;7.10;99.90;;;;;;5047782;28;20044;-78
2022/03/29 06:06:34;;;;;;;30.95;18.63;;;7.10;99.90;;;;;;5044040;28;20064;-78
2022/03/29 06:09:00;;;;;;;37.72;18.98;;;7.10;99.90;;;;;;5034426;28;20422;-78
2022/03/29 06:11:26;;;;;;;28.27;18.05;;;7.20;99.90;;;;;;5044822;28;20059;-78
2022/03/29 06:13:51;;;;;;;31.98;17.40;;;7.20;99.90;;;;;;5043448;28;20039;-78
2022/03/29 06:16:17;;;;;;;32.17;17.27;;;7.20;99.90;;;;;;5045434;28;20487;-78
2022/03/29 06:18:45;;;;;;;28.75;17.45;;;7.20;99.90;;;;;;5046888;28;20049;-79
2022/03/29 06:21:11;;;;;;;37.28;17.38;;;7.30;99.90;;;;;;5046772;28;20045;-78
2022/03/29 06:23:36;;;;;;;28.20;17.60;;;7.30;99.90;;;;;;5046016;28;20526;-77
2022/03/29 06:26:02;;;;;;;32.60;17.92;;;7.30;99.90;;;;;;5036952;28;20131;-79
2022/03/29 06:28:27;;;;;;;29.73;17.77;;;7.30;99.90;;;;;;5038184;28;20495;-78
2022/03/29 06:30:53;;;;;;;28.42;17.40;;;7.40;99.90;;;;;;5042293;28;20053;-78
2022/03/29 06:33:20;;;;;;;28.02;16.52;;;7.30;99.90;;;;;;5045826;28;20406;-78
2022/03/29 06:35:45;;;;;;;30.20;17.92;;;7.40;99.90;;;;;;5044359;28;20483;-77
2022/03/29 06:38:11;;;;;;;28.65;17.13;;;7.40;99.90;;;;;;5045201;28;20072;-77
2022/03/29 06:40:37;;;;;;;28.05;17.60;;;7.50;99.90;;;;;;5046550;28;20049;-78
2022/03/29 06:43:05;;;;;;;32.67;17.08;;;7.50;99.90;;;;;;5046699;28;20036;-77
2022/03/29 06:45:31;;;;;;;30.90;17.73;;;7.60;99.90;;;;;;5043110;28;20483;-77
2022/03/29 06:47:58;;;;;;;28.73;17.60;;;7.60;99.90;;;;;;5045972;28;20359;-77
2022/03/29 06:50:23;;;;;;;32.92;17.55;;;7.50;99.90;;;;;;5044177;28;20060;-76
2022/03/29 06:52:49;;;;;;;31.35;17.55;;;7.60;99.90;;;;;;5047000;28;20036;-77
2022/03/29 06:55:17;;;;;;;26.45;17.15;;;7.50;99.90;;;;;;5047463;28;20041;-75
2022/03/29 06:57:43;;;;;;;27.73;17.27;;;7.50;99.90;;;;;;5044526;28;20156;-76
2022/03/29 07:00:10;;;;;;;30.38;17.38;;;7.60;99.90;;;;;;5044136;28;20582;-73
2022/03/29 07:02:36;;;;;;;30.42;18.52;;;7.60;99.90;;;;;;5044702;28;20135;-75
2022/03/29 07:05:03;;;;;;;32.03;17.95;;;7.60;99.90;;;;;;5031080;28;20064;-76
2022/03/29 07:07:29;;;;;;;29.50;17.50;;;7.60;99.90;;;;;;5042991;28;20041;-76
2022/03/29 07:12:49;;;;;;;29.02;16.95;;;7.60;99.90;;;;;;5046661;28;20045;-75
2022/03/29 07:15:16;;;;;;;30.52;18.00;;;7.60;99.90;;;;;;5039973;28;20033;-78
2022/03/29 07:17:41;;;;;;;28.25;17.23;;;7.60;99.90;;;;;;5044117;28;20045;-76
2022/03/29 07:20:07;;;;;;;28.23;16.75;;;7.60;99.90;;;;;;5046285;28;20151;-74
2022/03/29 07:22:35;;;;;;;27.52;18.05;;;7.70;99.90;;;;;;5044957;28;20059;-75
2022/03/29 07:25:01;;;;;;;29.05;17.38;;;7.70;99.90;;;;;;5045078;28;20040;-74
2022/03/29 07:27:26;;;;;;;29.92;17.33;;;7.70;99.90;;;;;;5043580;28;21328;-76
2022/03/29 07:29:53;;;;;;;29.55;17.38;;;7.70;99.90;;;;;;5029517;28;20060;-75
2022/03/29 07:32:18;;;;;;;27.63;17.27;;;7.80;99.90;;;;;;5045505;28;20057;-74
2022/03/29 07:34:44;;;;;;;28.50;17.15;;;7.80;99.90;;;;;;5043958;28;20041;-74
2022/03/29 07:37:10;;;;;;;27.98;16.17;;;8.00;99.90;;;;;;5037824;28;20091;-74
2022/03/29 07:39:35;;;;;;;27.13;17.25;;;8.10;99.90;;;;;;5044810;28;20451;-77
2022/03/29 07:42:01;;;;;;;29.38;17.08;;;8.10;99.90;;;;;;5046671;28;20092;-73
2022/03/29 07:44:26;;;;;;;29.05;17.33;;;8.10;99.90;;;;;;5038794;28;20071;-74
2022/03/29 07:46:52;;;;;;;30.67;17.27;;;8.30;99.90;;;;;;5044788;28;20120;-74
2022/03/29 07:49:17;;;;;;;29.25;17.35;;;8.30;99.90;;;;;;5041881;28;20169;-74
2022/03/29 07:51:43;;;;;;;27.63;17.85;;;8.30;99.90;;;;;;5046554;28;20053;-76
2022/03/29 07:54:09;;;;;;;29.10;18.40;;;8.30;99.90;;;;;;5044035;28;20194;-74
2022/03/29 07:56:34;;;;;;;30.40;17.58;;;8.40;99.90;;;;;;5046916;28;20080;-75
2022/03/29 07:59:00;;;;;;;28.85;17.15;;;8.50;99.90;;;;;;5038302;28;20040;-74
2022/03/29 08:01:28;;;;;;;31.50;17.13;;;8.50;99.90;;;;;;5050053;28;20044;-73
2022/03/29 08:03:55;;;;;;;30.80;17.52;;;8.50;99.90;;;;;;5049540;28;20056;-74
2022/03/29 08:06:20;;;;;;;29.35;17.58;;;8.60;99.90;;;;;;5051449;28;20063;-75
2022/03/29 08:08:49;;;;;;;30.88;18.25;;;8.60;99.90;;;;;;5051276;28;20478;-75
2022/03/29 08:11:15;;;;;;;29.88;18.90;;;8.50;99.90;;;;;;5047986;28;20068;-71
2022/03/29 08:13:40;;;;;;;33.10;19.85;;;8.60;99.90;;;;;;5046931;28;20180;-74
2022/03/29 08:16:06;;;;;;;29.63;18.02;;;8.70;99.90;;;;;;5063626;28;20186;-75
2022/03/29 08:18:34;;;;;;;31.08;18.98;;;8.90;99.90;;;;;;5052288;28;20387;-75
2022/03/29 08:20:59;;;;;;;33.15;18.83;;;9.10;99.90;;;;;;5046658;28;20055;-75
2022/03/29 08:23:26;;;;;;;29.98;19.83;;;9.30;99.90;;;;;;5048830;28;20053;-74
2022/03/29 08:25:52;;;;;;;33.15;20.10;;;9.40;99.90;;;;;;5025956;28;20148;-76
2022/03/29 08:28:19;;;;;;;35.47;20.30;;;9.60;99.90;;;;;;5031673;28;21587;-75
2022/03/29 08:30:45;;;;;;;30.65;18.98;;;9.70;99.90;;;;;;5036087;28;20372;-74
2022/03/29 08:33:11;;;;;;;31.88;19.15;;;9.70;99.90;;;;;;5034760;28;20049;-76
2022/03/29 08:35:39;;;;;;;31.60;18.80;;;9.70;99.90;;;;;;5034706;28;20099;-74
2022/03/29 08:38:06;;;;;;;29.75;18.42;;;9.70;99.90;;;;;;5033876;28;20048;-74
2022/03/29 08:40:32;;;;;;;33.55;19.48;;;9.70;99.90;;;;;;5032475;28;20048;-74
2022/03/29 08:43:00;;;;;;;32.88;18.58;;;9.80;99.90;;;;;;5032969;28;20053;-78
2022/03/29 08:45:30;;;;;;;31.52;18.60;;;9.70;99.90;;;;;;5034981;28;20456;-75
2022/03/29 08:47:58;;;;;;;28.60;17.75;;;9.70;99.90;;;;;;5034130;28;20215;-77
2022/03/29 08:50:28;;;;;;;29.13;17.83;;;9.70;99.90;;;;;;5054785;28;20479;-76
2022/03/29 08:52:53;;;;;;;26.00;16.40;;;9.70;99.90;;;;;;5031909;28;20060;-77
2022/03/29 08:55:20;;;;;;;30.98;17.55;;;9.70;99.90;;;;;;5031251;28;20060;-74
2022/03/29 08:57:49;;;;;;;31.77;16.38;;;9.70;99.90;;;;;;5031441;28;20042;-73
2022/03/29 09:00:16;;;;;;;30.40;17.58;;;9.80;99.90;;;;;;5012790;28;20053;-74
2022/03/29 09:02:41;;;;;;;29.90;17.58;;;9.90;99.90;;;;;;5029753;28;20045;-75
2022/03/29 09:05:08;;;;;;;26.25;16.50;;;10.10;99.90;;;;;;5017897;28;20049;-74
2022/03/29 09:07:48;;;;;;;28.60;17.30;;;10.20;99.90;;;;;;5020500;28;20619;-74
2022/03/29 09:10:14;;;;;;;32.03;17.83;;;10.40;99.90;;;;;;5034122;28;20352;-74
2022/03/29 09:12:40;;;;;;;28.88;17.08;;;10.70;99.90;;;;;;5036966;28;20120;-74
2022/03/29 09:15:06;;;;;;;25.45;17.00;;;10.80;99.90;;;;;;5035942;28;20421;-74
2022/03/29 09:17:38;;;;;;;28.70;16.67;;;10.80;99.90;;;;;;5034888;28;20047;-74
2022/03/29 09:20:10;;;;;;;30.95;16.88;;;10.80;99.90;;;;;;5038346;28;20701;-75
2022/03/29 09:22:47;;;;;;;26.45;16.10;;;10.70;99.90;;;;;;5036367;28;20099;-76
2022/03/29 09:25:22;;;;;;;27.90;16.77;;;10.80;99.90;;;;;;5034993;28;20052;-76
2022/03/29 09:27:49;;;;;;;;;;;11.00;99.90;;;;;;5034097;28;20057;-76
2022/03/29 09:30:15;;;;;;;29.83;17.30;;;11.10;99.90;;;;;;5032467;28;19975;-77
2022/03/29 09:33:04;;;;;;;29.30;17.90;;;11.40;99.90;;;;;;5036815;28;20047;-75
2022/03/29 09:35:32;;;;;;;25.35;16.10;;;11.40;99.90;;;;;;5033393;28;20444;-75
2022/03/29 09:37:59;;;;;;;26.48;17.05;;;11.60;99.90;;;;;;5040338;28;20040;-76
2022/03/29 09:40:34;;;;;;;32.75;17.33;;;11.70;99.90;;;;;;5044393;28;20045;-75
2022/03/29 09:43:08;;;;;;;28.88;16.63;;;11.90;99.90;;;;;;5045405;28;20341;-76
2022/03/29 09:45:43;;;;;;;26.80;17.42;;;12.10;99.90;;;;;;5048986;28;20041;-74
2022/03/29 09:48:22;;;;;;;28.23;17.50;;;12.10;99.90;;;;;;5049578;28;20055;-75
2022/03/29 09:50:49;;;;;;;29.33;17.65;;;12.00;99.90;;;;;;5046343;28;20190;-75
2022/03/29 09:53:55;;;;;;;27.98;16.50;;;11.90;99.90;;;;;;5046458;28;20324;-75
2022/03/29 09:56:29;;;;;;;26.23;16.98;;;11.90;99.90;;;;;;5015543;28;20072;-76
2022/03/29 09:59:10;;;;;;;30.63;17.75;;;12.10;99.90;;;;;;5025784;28;20103;-77
2022/03/29 10:02:05;;;;;;;29.05;17.60;;;12.10;99.90;;;;;;5037599;28;20059;-76
2022/03/29 10:04:30;;;;;;;28.38;17.17;;;12.10;99.50;;;;;;5040818;28;20056;-75
2022/03/29 10:07:00;;;;;;;29.98;17.73;;;12.20;99.90;;;;;;5046591;28;20032;-74
2022/03/29 10:09:32;;;;;;;31.02;18.60;;;12.20;99.90;;;;;;5047202;28;20137;-74
2022/03/29 10:12:04;;;;;;;27.55;18.40;;;12.20;99.00;;;;;;5048881;28;20053;-75
2022/03/29 10:14:36;;;;;;;31.17;17.70;;;12.00;99.10;;;;;;5042449;28;20044;-74
2022/03/29 10:17:04;;;;;;;30.17;18.05;;;12.10;99.50;;;;;;5046007;28;20089;-75
2022/03/29 10:19:30;;;;;;;32.75;18.88;;;12.20;99.50;;;;;;5043109;28;20049;-75
2022/03/29 10:21:58;;;;;;;29.73;18.00;;;12.30;98.90;;;;;;5046323;28;20052;-74
2022/03/29 10:24:24;;;;;;;29.63;17.70;;;12.20;98.20;;;;;;5046795;28;20087;-73
2022/03/29 10:26:52;;;;;;;28.25;17.90;;;12.20;98.90;;;;;;5044792;28;20037;-74
2022/03/29 10:29:18;;;;;;;29.00;17.38;;;12.20;98.10;;;;;;5047664;28;20455;-75
2022/03/29 10:32:00;;;;;;;30.75;17.67;;;12.20;98.50;;;;;;5048583;28;20090;-73
2022/03/29 10:34:30;;;;;;;29.20;18.10;;;12.40;98.00;;;;;;5028589;28;20447;-74
2022/03/29 10:37:03;;;;;;;32.33;18.25;;;12.30;97.70;;;;;;5048863;28;20128;-74
2022/03/29 10:40:00;;;;;;;28.80;16.65;;;12.40;97.70;;;;;;5048508;28;20095;-74
2022/03/29 10:42:46;;;;;;;30.63;17.42;;;12.50;97.00;;;;;;5045718;28;20479;-74
2022/03/29 10:45:25;;;;;;;28.38;16.95;;;12.40;97.20;;;;;;5037913;28;20281;-74
2022/03/29 10:47:53;;;;;;;27.60;16.83;;;12.40;97.80;;;;;;5032017;28;20562;-74
2022/03/29 10:50:19;;;;;;;27.48;17.63;;;12.30;96.30;;;;;;5045070;28;20052;-72
2022/03/29 10:52:47;;;;;;;27.75;16.75;;;12.20;97.70;;;;;;5046649;28;20367;-75
2022/03/29 10:55:25;;;;;;;29.45;15.85;;;12.10;96.80;;;;;;5046426;28;20040;-76
2022/03/29 10:58:10;;;;;;;27.60;16.00;;;12.20;97.80;;;;;;5047178;28;20063;-74
2022/03/29 11:00:44;;;;;;;24.10;14.25;;;12.20;97.10;;;;;;5044309;28;22410;-74
2022/03/29 11:03:11;;;;;;;27.80;15.93;;;12.50;97.90;;;;;;5058621;28;20130;-75
2022/03/29 11:06:03;;;;;;;28.33;15.48;;;12.70;97.70;;;;;;5047815;28;20440;-74
2022/03/29 11:08:30;;;;;;;29.75;16.65;;;12.60;96.60;;;;;;5044204;28;20124;-75
2022/03/29 11:10:58;;;;;;;26.70;15.43;;;12.40;97.10;;;;;;5032807;28;20045;-74
2022/03/29 11:13:25;;;;;;;29.95;17.02;;;12.30;97.20;;;;;;5027937;28;20060;-74
2022/03/29 11:15:52;;;;;;;26.63;16.70;;;12.20;97.00;;;;;;5038570;28;20044;-73
2022/03/29 11:18:47;;;;;;;26.90;17.02;;;12.00;97.50;;;;;;5042674;28;20049;-75
2022/03/29 11:21:28;;;;;;;29.27;17.17;;;12.10;98.00;;;;;;5037265;28;20057;-73
2022/03/29 11:23:58;;;;;;;29.33;16.83;;;12.00;97.20;;;;;;5045581;28;20291;-75
2022/03/29 11:26:23;;;;;;;28.02;16.80;;;12.00;97.50;;;;;;5048439;28;20068;-75
2022/03/29 11:28:51;;;;;;;30.45;16.23;;;12.10;97.90;;;;;;5049401;28;20459;-77
2022/03/29 11:31:18;;;;;;;28.15;16.27;;;12.20;97.60;;;;;;5046536;28;20101;-75
2022/03/29 11:33:49;;;;;;;29.70;16.60;;;12.30;97.70;;;;;;5050442;28;20047;-76
2022/03/29 11:36:15;;;;;;;29.63;16.17;;;12.40;97.70;;;;;;5050618;28;20439;-75
2022/03/29 11:38:40;;;;;;;30.55;16.80;;;12.30;97.00;;;;;;5049148;28;20037;-75
2022/03/29 11:41:18;;;;;;;27.02;16.77;;;12.40;97.40;;;;;;5049080;28;20037;-75
2022/03/29 11:43:49;;;;;;;27.30;15.70;;;12.40;96.70;;;;;;5050040;28;20562;-76
2022/03/29 11:46:15;;;;;;;24.80;15.52;;;12.50;95.70;;;;;;5050680;28;20045;-75
2022/03/29 11:48:48;;;;;;;25.80;14.45;;;12.50;95.80;;;;;;5051322;28;20108;-75
2022/03/29 11:51:15;;;;;;;26.77;15.48;;;12.50;94.10;;;;;;5049209;28;20506;-75
2022/03/29 11:53:41;;;;;;;22.63;15.05;;;12.60;93.90;;;;;;5051052;28;20060;-75
2022/03/29 11:56:08;;;;;;;25.33;14.25;;;12.60;93.20;;;;;;5050294;28;20064;-75
2022/03/29 11:58:42;;;;;;;24.73;14.93;;;12.60;93.40;;;;;;5048369;28;20053;-76
2022/03/29 12:01:12;;;;;;;28.42;16.52;;;12.70;94.20;;;;;;5046313;28;20151;-76
2022/03/29 12:03:43;;;;;;;30.52;15.88;;;12.70;93.60;;;;;;5048743;28;20229;-76
2022/03/29 12:06:14;;;;;;;27.52;16.55;;;12.80;93.70;;;;;;5044730;28;20044;-75
2022/03/29 12:08:45;;;;;;;28.70;15.55;;;12.80;92.20;;;;;;5047856;28;20063;-76
2022/03/29 12:11:10;;;;;;;31.27;16.15;;;12.80;92.60;;;;;;5049962;28;20057;-76
2022/03/29 12:13:36;;;;;;;27.35;15.07;;;12.80;92.50;;;;;;5047926;28;20044;-76
2022/03/29 12:16:22;;;;;;;25.25;14.48;;;12.90;93.20;;;;;;5042821;28;20060;-76
2022/03/29 12:18:50;;;;;;;23.40;14.13;;;12.90;88.20;;;;;;5062291;28;20045;-76
2022/03/29 12:21:18;;;;;;;26.38;15.15;;;12.90;91.50;;;;;;5039647;28;20037;-76
2022/03/29 12:23:44;;;;;;;24.75;15.13;;;13.00;90.60;;;;;;5050272;28;20043;-75
2022/03/29 12:26:12;;;;;;;25.85;14.93;;;13.10;91.20;;;;;;5053417;28;20871;-76
2022/03/29 12:28:39;;;;;;;26.50;14.65;;;13.10;91.40;;;;;;5058277;28;20127;-75
2022/03/29 12:31:12;;;;;;;26.13;14.68;;;13.20;91.40;;;;;;5047734;28;20029;-76
2022/03/29 12:33:39;;;;;;;25.73;15.00;;;13.20;89.00;;;;;;5049571;28;20080;-75
2022/03/29 12:36:10;;;;;;;25.35;14.80;;;13.40;90.90;;;;;;5047594;28;20041;-76
2022/03/29 12:38:59;;;;;;;24.13;14.65;;;13.50;91.40;;;;;;5049837;28;20407;-76
2022/03/29 12:41:32;;;;;;;26.48;15.13;;;13.70;88.40;;;;;;5063908;28;20471;-76
2022/03/29 12:43:59;;;;;;;26.30;15.00;;;13.70;86.10;;;;;;5042114;28;20042;-76
2022/03/29 12:46:25;;;;;;;24.25;14.70;;;13.80;86.80;;;;;;5064763;28;20045;-76